Time;durP1;ratioP1;P1;durP2;ratioP2;P2;SDS_P1;SDS_P2;PMS_P1;PMS_P2;Temp;Humidity;BMP_temperature;BMP_pressure;BME280_temperature;BME280_humidity;BME280_pressure;Samples;Min_cycle;Max_cycle;Signal;HPM_P1;HPM_P2
2024/01/01 00:03:45;;;;;;;89.80;55.50;;;;;;;6.56;100.00;99543.31;10457998;28;20068;-84
2024/01/01 00:08:45;;;;;;;135.77;85.70;;;;;;;6.55;100.00;99541.66;10458265;28;20056;-84
2024/01/01 00:13:46;;;;;;;99.45;64.93;;;;;;;6.58;100.00;99543.88;10448807;28;20037;-86
2024/01/01 00:18:47;;;;;;;98.45;65.72;;;;;;;6.54;100.00;99541.94;10423138;28;20041;-83
2024/01/01 00:23:47;;;;;;;95.55;59.70;;;;;;;6.65;100.00;99539.00;10456763;28;20047;-83
2024/01/01 00:28:48;;;;;;;80.60;46.42;;;;;;;6.64;100.00;99531.88;10458210;28;21213;-83
2024/01/01 00:33:48;;;;;;;66.95;42.78;;;;;;;6.68;100.00;99515.78;10438287;28;20036;-83
2024/01/01 00:38:51;;;;;;;65.00;37.08;;;;;;;6.81;100.00;99534.47;10473275;28;20045;-83
2024/01/01 00:43:51;;;;;;;48.33;30.60;;;;;;;6.85;100.00;99523.84;10428371;28;20037;-83
2024/01/01 00:48:52;;;;;;;47.08;28.50;;;;;;;6.85;100.00;99523.84;10455129;28;20505;-82
2024/01/01 00:53:52;;;;;;;37.20;24.17;;;;;;;6.90;100.00;99501.16;10455950;28;20041;-86
2024/01/01 00:58:53;;;;;;;39.45;23.20;;;;;;;7.00;100.00;99502.03;10455874;28;20033;-87
2024/01/01 01:03:53;;;;;;;73.93;40.33;;;;;;;7.08;100.00;99509.75;10422841;28;20037;-86
2024/01/01 01:08:54;;;;;;;40.47;24.25;;;;;;;7.07;100.00;99505.38;10400196;28;20128;-85
2024/01/01 01:13:56;;;;;;;43.55;25.73;;;;;;;7.06;100.00;99511.94;10448632;28;21029;-83
2024/01/01 01:18:56;;;;;;;62.58;34.67;;;;;;;7.01;100.00;99498.22;10432617;28;20068;-84
2024/01/01 01:23:58;;;;;;;45.88;28.10;;;;;;;6.70;100.00;99452.59;10422587;28;20059;-87
2024/01/01 01:28:58;;;;;;;41.92;23.38;;;;;;;7.06;100.00;99509.19;10446748;28;20053;-84
2024/01/01 01:33:59;;;;;;;38.13;20.50;;;;;;;7.07;100.00;99513.59;10420882;28;20041;-85
2024/01/01 01:38:59;;;;;;;31.33;18.52;;;;;;;7.16;100.00;99515.81;10438832;28;20041;-84
2024/01/01 01:44:00;;;;;;;34.05;18.55;;;;;;;7.14;100.00;99512.53;10422418;28;20052;-90
2024/01/01 01:49:01;;;;;;;41.80;20.52;;;;;;;7.20;100.00;99523.22;10422725;28;20043;-86
2024/01/01 01:54:02;;;;;;;48.38;23.10;;;;;;;7.05;100.00;99515.75;10439137;28;20040;-86
2024/01/01 01:59:03;;;;;;;38.67;21.42;;;;;;;7.10;100.00;99516.88;10439217;28;20045;-85
2024/01/01 02:04:03;;;;;;;42.90;23.25;;;;;;;7.08;100.00;99509.75;10432361;28;20034;-87
2024/01/01 02:09:04;;;;;;;38.10;21.48;;;;;;;7.00;100.00;99514.91;10436475;28;20084;-86
2024/01/01 02:14:12;;;;;;;37.40;22.73;;;;;;;7.06;100.00;99522.88;10421856;28;20886;-81
2024/01/01 02:19:18;;;;;;;38.30;19.95;;;;;;;7.05;100.00;99515.75;10438516;28;20045;-87
2024/01/01 02:24:19;;;;;;;46.50;23.15;;;;;;;7.12;100.00;99520.19;10438713;28;20043;-86
2024/01/01 02:29:19;;;;;;;51.80;31.80;;;;;;;7.14;100.00;99518.00;10426655;28;20041;-85
2024/01/01 02:34:21;;;;;;;76.68;47.15;;;;;;;7.06;100.00;99516.59;10457919;28;20057;-85
2024/01/01 02:39:22;;;;;;;37.60;21.85;;;;;;;7.05;100.00;99521.25;10455337;28;20033;-85
2024/01/01 02:44:22;;;;;;;32.25;19.42;;;;;;;7.03;100.00;99528.06;10443762;28;20036;-88
2024/01/01 02:49:23;;;;;;;29.40;17.13;;;;;;;6.98;100.00;99530.75;10428445;28;20033;-86
2024/01/01 02:54:24;;;;;;;28.05;17.33;;;;;;;6.86;100.00;99511.78;10445375;28;20045;-80
2024/01/01 02:59:24;;;;;;;29.83;15.38;;;;;;;6.94;100.00;99538.66;10477026;28;20041;-85
2024/01/01 03:04:28;;;;;;;31.50;16.55;;;;;;;6.95;100.00;99526.66;10459463;28;20455;-84
2024/01/01 03:09:29;;;;;;;25.58;14.02;;;;;;;6.94;100.00;99544.13;10443672;28;20037;-87
2024/01/01 03:14:29;;;;;;;22.65;13.15;;;;;;;6.89;100.00;99538.63;10433668;28;20068;-83
2024/01/01 03:19:30;;;;;;;21.30;10.50;;;;;;;6.77;100.00;99551.69;10433384;28;20060;-86
2024/01/01 03:24:30;;;;;;;21.05;12.68;;;;;;;6.58;100.00;99541.13;10439613;28;20091;-82
2024/01/01 03:29:30;;;;;;;22.08;13.23;;;;;;;6.37;100.00;99548.34;10461583;28;20037;-81
2024/01/01 03:34:33;;;;;;;27.17;14.57;;;;;;;6.18;100.00;99544.31;10459968;28;20037;-81
2024/01/01 03:39:33;;;;;;;24.15;14.48;;;;;;;6.17;100.00;99554.41;10460781;28;20052;-81
2024/01/01 03:44:33;;;;;;;14.27;11.80;;;;;;;6.14;100.00;99563.16;10444004;28;20044;-81
2024/01/01 03:49:34;;;;;;;21.35;11.07;;;;;;;6.13;100.00;99556.00;10442858;28;20047;-80
2024/01/01 03:54:34;;;;;;;9.75;7.50;;;;;;;6.07;100.00;99549.66;10460693;28;20041;-82
2024/01/01 03:59:35;;;;;;;11.15;5.13;;;;;;;5.92;100.00;99518.63;10443334;28;20032;-81
2024/01/01 04:04:36;;;;;;;10.15;6.53;;;;;;;6.06;100.00;99545.28;10459829;28;20033;-82
2024/01/01 04:09:37;;;;;;;14.48;9.00;;;;;;;6.05;100.00;99578.34;10474951;28;20069;-88
2024/01/01 04:14:38;;;;;;;11.00;7.38;;;;;;;5.79;100.00;99537.06;10442812;28;20047;-81
2024/01/01 04:19:39;;;;;;;13.93;6.90;;;;;;;5.93;100.00;99564.78;10451465;28;20447;-84
2024/01/01 04:24:41;;;;;;;9.88;6.32;;;;;;;5.90;100.00;99554.38;10442772;28;20037;-83
2024/01/01 04:29:42;;;;;;;12.77;7.25;;;;;;;5.93;100.00;99555.75;10459149;28;20132;-81
2024/01/01 04:34:42;;;;;;;8.30;7.30;;;;;;;5.79;100.00;99538.97;10458669;28;20036;-82
2024/01/01 04:39:42;;;;;;;8.52;7.75;;;;;;;5.78;100.00;99548.22;10457727;28;20036;-80
2024/01/01 04:44:43;;;;;;;11.85;8.23;;;;;;;5.74;100.00;99539.69;10473405;28;20106;-81
2024/01/01 04:49:44;;;;;;;8.27;7.00;;;;;;;5.81;100.00;99551.28;10474700;28;20087;-81
2024/01/01 04:54:44;;;;;;;9.68;6.80;;;;;;;5.80;100.00;99559.72;10459860;28;20476;-82
2024/01/01 04:59:45;;;;;;;11.73;7.35;;;;;;;5.63;100.00;99532.50;10422992;28;20037;-80
2024/01/01 05:04:45;;;;;;;18.98;9.30;;;;;;;5.76;100.00;99559.41;10445877;28;20041;-79
2024/01/01 05:09:46;;;;;;;14.90;7.82;;;;;;;5.72;100.00;99555.53;10473456;28;20107;-78
2024/01/01 05:14:46;;;;;;;10.82;8.23;;;;;;;5.76;100.00;99559.41;10473932;28;20040;-79
2024/01/01 05:19:50;;;;;;;9.95;8.90;;;;;;;5.70;100.00;99565.88;10457370;28;20063;-78
2024/01/01 05:24:50;;;;;;;12.82;9.63;;;;;;;5.70;100.00;99560.41;10457700;28;20029;-79
2024/01/01 05:29:51;;;;;;;12.95;10.73;;;;;;;5.57;100.00;99549.88;10454656;28;20102;-78
2024/01/01 05:34:51;;;;;;;15.90;9.25;;;;;;;5.65;100.00;99554.91;10471422;28;20045;-78
2024/01/01 05:39:51;;;;;;;13.02;9.35;;;;;;;5.59;100.00;99547.72;10456401;28;20466;-78
2024/01/01 05:44:52;;;;;;;12.38;9.85;;;;;;;5.65;100.00;99565.81;10458448;28;20037;-78
2024/01/01 05:49:52;;;;;;;17.05;11.25;;;;;;;5.69;100.00;99561.50;10458761;28;20037;-77
2024/01/01 05:54:53;;;;;;;13.07;10.70;;;;;;;5.64;100.00;99572.34;10457204;28;20041;-78
2024/01/01 05:59:53;;;;;;;13.73;10.93;;;;;;;5.49;100.00;99536.69;10455325;28;20045;-78
2024/01/01 06:04:54;;;;;;;14.13;12.45;;;;;;;5.62;100.00;99569.03;10456994;28;20060;-81
2024/01/01 06:09:54;;;;;;;20.08;11.13;;;;;;;5.53;100.00;99556.94;10456383;28;20112;-82
2024/01/01 06:14:55;;;;;;;16.67;12.27;;;;;;;5.69;100.00;99574.34;10459687;28;20033;-82
2024/01/01 06:19:56;;;;;;;12.02;10.88;;;;;;;5.67;100.00;99577.31;10447225;28;20049;-82
2024/01/01 06:24:56;;;;;;;16.70;12.00;;;;;;;5.66;100.00;99592.88;10463909;28;20033;-83
2024/01/01 06:29:58;;;;;;;13.70;11.25;;;;;;;5.73;100.00;99595.41;10479359;28;20048;-81
2024/01/01 06:34:58;;;;;;;14.43;13.00;;;;;;;5.76;100.00;99589.44;10463180;28;20049;-81
2024/01/01 06:39:59;;;;;;;14.60;11.90;;;;;;;5.79;100.00;99590.84;10461939;28;20045;-80
2024/01/01 06:45:06;;;;;;;12.50;11.25;;;;;;;5.83;100.00;99606.47;10445915;28;20409;-79
2024/01/01 06:50:07;;;;;;;22.85;12.88;;;;;;;5.81;100.00;99608.63;10463397;28;20064;-81
2024/01/01 06:55:07;;;;;;;21.17;12.13;;;;;;;5.89;100.00;99628.38;10464597;28;20044;-81
2024/01/01 07:00:08;;;;;;;16.42;12.07;;;;;;;5.82;100.00;99623.91;10463401;28;20048;-80
2024/01/01 07:05:08;;;;;;;15.60;11.13;;;;;;;5.90;100.00;99627.31;10462890;28;20029;-79
2024/01/01 07:10:09;;;;;;;13.95;10.90;;;;;;;5.90;100.00;99647.25;10460550;28;20043;-78
2024/01/01 07:15:09;;;;;;;15.15;13.30;;;;;;;5.91;100.00;99654.34;10463774;28;20037;-82
2024/01/01 07:20:10;;;;;;;15.88;11.85;;;;;;;5.92;100.00;99650.56;10463743;28;20056;-78
2024/01/01 07:25:11;;;;;;;17.50;14.15;;;;;;;5.91;100.00;99659.00;10461222;28;20527;-80
2024/01/01 07:30:11;;;;;;;19.92;13.80;;;;;;;5.92;100.00;99658.75;10463391;28;20052;-78
2024/01/01 07:35:12;;;;;;;14.23;12.82;;;;;;;5.47;100.00;99605.16;10461737;28;20053;-78
2024/01/01 07:40:12;;;;;;;15.65;13.90;;;;;;;5.83;100.00;99673.94;10459499;28;20048;-79
2024/01/01 07:45:13;;;;;;;23.70;12.88;;;;;;;5.91;100.00;99694.50;10461069;28;20083;-77
2024/01/01 07:50:13;;;;;;;19.15;13.40;;;;;;;5.80;100.00;99666.22;10477728;28;20120;-80
2024/01/01 07:55:14;;;;;;;23.13;14.05;;;;;;;5.78;100.00;99680.13;10459405;28;20037;-79
2024/01/01 08:00:15;;;;;;;18.00;14.85;;;;;;;5.90;100.00;99695.59;10459175;28;20049;-77
2024/01/01 08:05:16;;;;;;;14.70;13.30;;;;;;;5.89;100.00;99704.84;10458619;28;20040;-79
2024/01/01 08:10:17;;;;;;;15.95;12.75;;;;;;;5.88;100.00;99697.75;10460616;28;20091;-78
2024/01/01 08:15:17;;;;;;;16.45;12.13;;;;;;;5.85;100.00;99727.22;10476545;28;20036;-81
2024/01/01 08:20:19;;;;;;;18.05;12.88;;;;;;;5.86;100.00;99745.25;10459709;28;20071;-79
2024/01/01 08:25:20;;;;;;;17.15;11.90;;;;;;;5.89;100.00;99732.16;10460773;28;20060;-80
2024/01/01 08:30:20;;;;;;;15.30;13.18;;;;;;;5.85;100.00;99743.63;10457842;28;20037;-80
2024/01/01 08:35:21;;;;;;;14.20;12.98;;;;;;;5.70;100.00;99724.25;10456662;28;20059;-77
2024/01/01 08:40:21;;;;;;;16.08;14.80;;;;;;;5.74;100.00;99744.53;10473926;28;20041;-78
2024/01/01 08:45:22;;;;;;;17.63;15.93;;;;;;;5.72;100.00;99765.78;10460264;28;20048;-77
2024/01/01 08:50:22;;;;;;;16.85;15.38;;;;;;;5.83;100.00;99780.47;10458814;28;20106;-77
2024/01/01 08:55:22;;;;;;;12.38;11.60;;;;;;;5.56;100.00;99762.00;10458517;28;20397;-78
2024/01/01 09:00:23;;;;;;;14.93;13.60;;;;;;;5.59;100.00;99766.16;10455878;28;20416;-77
2024/01/01 09:05:23;;;;;;;14.27;12.98;;;;;;;5.44;100.00;99745.72;10439783;28;20113;-76
2024/01/01 09:10:24;;;;;;;14.20;12.60;;;;;;;5.57;100.00;99790.13;10459371;28;20029;-77
2024/01/01 09:15:24;;;;;;;15.45;13.20;;;;;;;5.53;100.00;99778.06;10473804;28;20051;-78
2024/01/01 09:20:25;;;;;;;12.13;11.52;;;;;;;5.58;100.00;99791.78;10457582;28;20052;-78
2024/01/01 09:25:25;;;;;;;11.40;10.63;;;;;;;5.70;100.00;99797.16;10455132;28;20056;-78
2024/01/01 09:30:26;;;;;;;12.75;11.80;;;;;;;5.83;100.00;99805.03;10458387;28;20037;-77
2024/01/01 09:35:27;;;;;;;13.98;12.70;;;;;;;5.98;100.00;99802.56;10457912;28;20037;-78
2024/01/01 09:40:27;;;;;;;12.82;11.50;;;;;;;6.04;100.00;99806.22;10454173;28;20076;-78
2024/01/01 09:45:27;;;;;;;14.30;12.93;;;;;;;6.10;100.00;99812.56;10455220;28;20029;-75
2024/01/01 09:50:28;;;;;;;15.48;13.02;;;;;;;6.17;100.00;99819.50;10463574;28;20436;-80
2024/01/01 09:55:30;;;;;;;14.68;12.82;;;;;;;6.24;100.00;99828.38;10466275;28;20520;-78
2024/01/01 10:00:30;;;;;;;20.27;12.35;;;;;;;6.33;100.00;99841.59;10462400;28;20041;-80
2024/01/01 10:05:30;;;;;;;13.75;12.57;;;;;;;6.41;100.00;99868.50;10464362;28;20033;-77
2024/01/01 10:10:31;;;;;;;17.75;13.60;;;;;;;6.31;100.00;99871.09;10466474;28;20045;-78
2024/01/01 10:15:35;;;;;;;17.85;14.27;;;;;;;6.34;100.00;99876.88;10446293;28;20076;-78
2024/01/01 10:20:36;;;;;;;14.77;13.38;;;;;;;6.31;100.00;99863.72;10465647;28;20044;-76
2024/01/01 10:25:37;;;;;;;13.98;12.57;;;;;;;6.12;100.00;99838.56;10462046;28;20033;-80
2024/01/01 10:30:37;;;;;;;19.67;13.25;;;;;;;6.39;100.00;99862.47;10463937;28;20033;-78
2024/01/01 10:35:38;;;;;;;16.77;14.30;;;;;;;6.36;100.00;99857.50;10463384;28;20056;-80
2024/01/01 10:40:38;;;;;;;17.95;16.25;;;;;;;6.53;100.00;99880.16;10463789;28;20044;-80
2024/01/01 10:45:39;;;;;;;25.10;14.43;;;;;;;6.45;100.00;99886.06;10462165;28;20029;-82
2024/01/01 10:50:42;;;;;;;18.67;13.90;;;;;;;6.53;100.00;99890.25;10460106;28;20037;-79
2024/01/01 10:56:05;;;;;;;16.30;14.60;;;;;;;6.57;100.00;99903.16;10460752;28;20033;-79
2024/01/01 11:01:13;;;;;;;17.13;14.45;;;;;;;6.40;100.00;99903.22;10459861;28;20041;-79
2024/01/01 11:06:27;;;;;;;17.60;16.02;;;;;;;6.56;100.00;99926.16;10443867;28;20048;-79
2024/01/01 11:11:31;;;;;;;18.92;14.05;;;;;;;6.61;100.00;99926.19;10461308;28;20049;-79
2024/01/01 11:16:48;;;;;;;19.08;16.02;;;;;;;6.58;100.00;99940.41;10476840;28;20045;-79
2024/01/01 11:21:48;;;;;;;15.98;14.30;;;;;;;6.52;100.00;99937.84;10439956;28;20041;-78
2024/01/01 11:26:49;;;;;;;14.57;12.85;;;;;;;6.45;100.00;99925.16;10457706;28;20029;-79
2024/01/01 11:31:49;;;;;;;13.65;12.30;;;;;;;6.39;100.00;99939.03;10443123;28;20040;-78
2024/01/01 11:36:50;;;;;;;14.85;11.60;;;;;;;6.41;100.00;99934.13;10460101;28;20084;-78
2024/01/01 11:41:51;;;;;;;14.40;12.00;;;;;;;6.61;100.00;99939.88;10454519;28;20576;-78
2024/01/01 11:46:54;;;;;;;16.63;12.65;;;;;;;6.86;100.00;99947.66;10460835;28;20089;-77
2024/01/01 11:52:02;;;;;;;13.30;12.07;;;;;;;6.93;100.00;99944.72;10421256;28;20096;-78
2024/01/01 11:57:03;;;;;;;13.80;12.25;;;;;;;6.83;100.00;99922.69;10464747;28;20051;-79
2024/01/01 12:02:04;;;;;;;14.05;10.63;;;;;;;7.14;100.00;99955.94;10456579;28;20513;-80
2024/01/01 12:07:04;;;;;;;20.67;11.07;;;;;;;7.20;100.00;99960.41;10472778;28;20044;-81
2024/01/01 12:12:05;;;;;;;15.15;9.75;;;;;;;7.01;100.00;99947.03;10458865;28;20048;-82
2024/01/01 12:17:06;;;;;;;16.63;11.15;;;;;;;7.21;100.00;99964.78;10460670;28;20570;-80
2024/01/01 12:22:06;;;;;;;16.77;11.93;;;;;;;7.29;100.00;99964.34;10459191;28;20096;-82
2024/01/01 12:27:09;;;;;;;15.50;13.00;;;;;;;7.15;100.00;99952.09;10473052;28;20033;-81
2024/01/01 12:32:09;;;;;;;18.33;10.88;;;;;;;7.01;100.00;99957.16;10455341;28;20442;-83
2024/01/01 12:37:10;;;;;;;12.35;11.18;;;;;;;6.92;100.00;99967.69;10457461;28;20085;-81
2024/01/01 12:42:10;;;;;;;12.43;8.95;;;;;;;6.85;100.00;99959.66;10438973;28;20040;-83
2024/01/01 12:47:11;;;;;;;14.35;9.35;;;;;;;6.76;100.00;99965.81;10457553;28;20097;-79
2024/01/01 12:52:11;;;;;;;11.57;10.50;;;;;;;6.86;100.00;99983.22;10452013;28;20037;-81
2024/01/01 12:57:12;;;;;;;16.58;9.75;;;;;;;6.75;100.00;99991.50;10458745;28;20037;-82
2024/01/01 13:02:12;;;;;;;9.98;7.03;;;;;;;6.69;100.00;99992.50;10436593;28;20041;-83
2024/01/01 13:07:13;;;;;;;8.30;7.60;;;;;;;6.53;100.00;100011.44;10473761;28;20037;-85
2024/01/01 13:12:13;;;;;;;11.07;9.95;;;;;;;6.38;100.00;99998.31;10460645;28;20041;-85
2024/01/01 13:17:14;;;;;;;10.27;9.45;;;;;;;6.40;100.00;100000.81;10457316;28;20048;-88
2024/01/01 13:22:16;;;;;;;12.35;9.75;;;;;;;6.48;100.00;100008.59;10457615;28;20041;-82
2024/01/01 13:27:17;;;;;;;11.77;10.70;;;;;;;6.42;100.00;99996.75;10472440;28;20041;-83
2024/01/01 13:32:18;;;;;;;15.35;6.28;;;;;;;6.66;100.00;100008.34;10455976;28;20048;-84
2024/01/01 13:37:19;;;;;;;8.05;4.95;;;;;;;6.78;100.00;100015.63;10454730;28;20041;-85
2024/01/01 13:42:19;;;;;;;10.60;6.95;;;;;;;6.86;100.00;100016.06;10456517;28;20094;-86
2024/01/01 13:47:20;;;;;;;10.02;6.90;;;;;;;6.74;100.00;100028.13;10457171;28;20037;-78
2024/01/01 13:52:20;;;;;;;16.10;7.68;;;;;;;6.76;100.00;100036.94;10456404;28;22372;-84
2024/01/01 13:57:20;;;;;;;7.97;6.90;;;;;;;6.63;100.00;100032.63;10456245;28;20064;-84
2024/01/01 14:02:21;;;;;;;12.82;7.85;;;;;;;6.44;100.00;100019.19;10456125;28;20044;-83
2024/01/01 14:07:22;;;;;;;18.13;8.50;;;;;;;6.40;100.00;100039.91;10455325;28;20067;-83
2024/01/01 14:12:22;;;;;;;10.95;7.28;;;;;;;6.56;100.00;100064.78;10472310;28;20047;-82
2024/01/01 14:17:23;;;;;;;10.63;6.18;;;;;;;6.61;100.00;100054.75;10456089;28;20040;-82
2024/01/01 14:22:24;;;;;;;10.07;6.18;;;;;;;6.70;100.00;100062.53;10452871;28;20049;-85
2024/01/01 14:27:24;;;;;;;12.52;5.78;;;;;;;6.71;100.00;100061.47;10455430;28;20041;-86
2024/01/01 14:32:26;;;;;;;13.45;6.13;;;;;;;6.69;100.00;100069.94;10455538;28;20052;-84
2024/01/01 14:37:27;;;;;;;12.48;5.50;;;;;;;6.62;100.00;100075.56;10444742;28;20064;-87
2024/01/01 14:42:29;;;;;;;13.13;6.50;;;;;;;6.55;100.00;100096.78;10445760;28;20045;-80
2024/01/01 14:47:29;;;;;;;12.38;6.63;;;;;;;6.43;100.00;100117.91;10462622;28;20041;-85
2024/01/01 14:52:30;;;;;;;13.63;7.03;;;;;;;6.33;100.00;100096.66;10462784;28;20400;-83
2024/01/01 14:57:30;;;;;;;11.10;5.55;;;;;;;6.23;100.00;100118.34;10463847;28;20052;-78
2024/01/01 15:02:34;;;;;;;12.02;7.10;;;;;;;6.16;100.00;100120.38;10463759;28;20079;-85
2024/01/01 15:07:34;;;;;;;10.98;6.45;;;;;;;5.68;100.00;100065.03;10460699;28;20039;-83
2024/01/01 15:12:35;;;;;;;12.85;6.18;;;;;;;5.86;100.00;100105.84;10461812;28;20075;-84
2024/01/01 15:17:35;;;;;;;10.52;6.60;;;;;;;5.81;100.00;100135.78;10428917;28;20041;-82
2024/01/01 15:22:36;;;;;;;10.27;6.20;;;;;;;5.82;100.00;100161.19;10462140;28;20044;-87
2024/01/01 15:27:36;;;;;;;11.43;6.53;;;;;;;5.60;100.00;100161.84;10459003;28;20080;-83
2024/01/01 15:32:37;;;;;;;16.55;7.40;;;;;;;5.74;100.00;100162.38;10443026;28;20033;-84
2024/01/01 15:37:37;;;;;;;13.32;6.80;;;;;;;5.77;100.00;100156.47;10461113;28;20044;-85
2024/01/01 15:42:38;;;;;;;11.98;5.55;;;;;;;5.93;100.00;100189.56;10443531;28;20389;-81
2024/01/01 15:47:38;;;;;;;8.40;5.13;;;;;;;5.85;100.00;100177.94;10476414;28;20052;-82
2024/01/01 15:52:41;;;;;;;15.85;5.43;;;;;;;5.74;100.00;100162.38;10476918;28;20044;-81
2024/01/01 15:57:41;;;;;;;13.55;7.13;;;;;;;5.79;100.00;100184.38;10462154;28;20040;-82
2024/01/01 16:02:42;;;;;;;10.30;6.13;;;;;;;5.86;100.00;100198.72;10462235;28;20037;-82
2024/01/01 16:07:42;;;;;;;18.15;6.60;;;;;;;5.91;100.00;100200.72;10455554;28;20041;-83
2024/01/01 16:12:42;;;;;;;10.85;5.50;;;;;;;5.99;100.00;100215.94;10473641;28;20079;-83
2024/01/01 16:17:43;;;;;;;10.18;5.82;;;;;;;6.00;100.00;100203.97;10442044;28;20040;-84
2024/01/01 16:22:43;;;;;;;9.90;5.82;;;;;;;5.95;100.00;100207.41;10458996;28;20071;-81
2024/01/01 16:27:44;;;;;;;14.38;5.63;;;;;;;5.95;100.00;100206.56;10458359;28;20033;-84
2024/01/01 16:32:44;;;;;;;13.25;5.22;;;;;;;5.84;100.00;100221.88;10458005;28;20044;-82
2024/01/01 16:37:45;;;;;;;15.85;7.05;;;;;;;5.79;100.00;100227.25;10474339;28;20041;-83
2024/01/01 16:42:45;;;;;;;7.97;5.10;;;;;;;5.75;100.00;100235.06;10440844;28;20044;-85
2024/01/01 16:47:47;;;;;;;17.42;5.70;;;;;;;5.66;100.00;100236.47;10460292;28;20060;-85
2024/01/01 16:52:48;;;;;;;15.45;6.13;;;;;;;5.58;100.00;100245.88;10439220;28;20071;-85
2024/01/01 16:57:48;;;;;;;14.10;6.43;;;;;;;5.55;100.00;100256.44;10454337;28;20083;-88
2024/01/01 17:02:50;;;;;;;14.88;5.80;;;;;;;5.32;100.00;100236.25;10456197;28;20067;-86
2024/01/01 17:07:50;;;;;;;16.73;6.30;;;;;;;5.32;100.00;100263.53;10458115;28;20527;-87
2024/01/01 17:12:51;;;;;;;13.73;7.25;;;;;;;5.25;100.00;100271.00;10427009;28;20401;-87
2024/01/01 17:17:51;;;;;;;14.63;6.38;;;;;;;5.12;100.00;100263.84;10453910;28;20129;-87
2024/01/01 17:22:52;;;;;;;14.40;7.38;;;;;;;5.17;100.00;100287.72;10455615;28;20075;-88
2024/01/01 17:27:52;;;;;;;12.57;7.32;;;;;;;5.00;100.00;100285.66;10455495;28;20053;-87
2024/01/01 17:32:53;;;;;;;12.75;7.47;;;;;;;4.92;100.00;100282.38;10453350;28;20045;-83
2024/01/01 17:37:53;;;;;;;17.73;7.15;;;;;;;4.75;100.00;100274.84;10456045;28;20030;-87
2024/01/01 17:42:54;;;;;;;16.20;7.53;;;;;;;4.76;100.00;100286.63;10453953;28;20045;-87
2024/01/01 17:47:54;;;;;;;16.25;7.70;;;;;;;4.53;100.00;100260.91;10448064;28;20080;-86
2024/01/01 17:52:55;;;;;;;15.52;7.53;;;;;;;4.60;100.00;100272.53;10452489;28;20118;-88
2024/01/01 17:57:55;;;;;;;15.75;8.57;;;;;;;4.61;100.00;100278.81;10457306;28;20045;-90
2024/01/01 18:02:56;;;;;;;21.05;9.27;;;;;;;4.51;100.00;100273.94;10454888;28;20040;-88
2024/01/01 18:07:56;;;;;;;23.30;9.10;;;;;;;4.62;100.00;100311.31;10439191;28;20079;-88
2024/01/01 18:12:57;;;;;;;18.88;8.55;;;;;;;4.57;100.00;100303.00;10465017;28;20057;-89
2024/01/01 18:17:57;;;;;;;10.40;8.02;;;;;;;4.62;100.00;100319.50;10465736;28;20041;-83
2024/01/01 18:22:58;;;;;;;17.20;8.80;;;;;;;4.53;100.00;100293.63;10460287;28;20366;-91
2024/01/01 18:27:58;;;;;;;19.17;8.57;;;;;;;4.56;100.00;100314.94;10460799;28;20041;-90
2024/01/01 18:32:59;;;;;;;22.52;8.25;;;;;;;4.47;100.00;100313.59;10455251;28;20041;-90
2024/01/01 18:37:59;;;;;;;18.27;9.88;;;;;;;4.45;100.00;100313.00;10468257;28;20088;-90
2024/01/01 18:43:00;;;;;;;19.88;7.53;;;;;;;4.62;100.00;100314.03;10446073;28;20037;-91
2024/01/01 18:48:00;;;;;;;20.83;8.77;;;;;;;4.67;100.00;100309.78;10442519;28;20068;-91
2024/01/01 18:53:01;;;;;;;21.08;8.48;;;;;;;4.76;100.00;100332.97;10444495;28;20481;-91
2024/01/01 18:58:01;;;;;;;18.13;8.13;;;;;;;4.79;100.00;100324.31;10436251;28;20108;-87
2024/01/01 19:03:02;;;;;;;27.55;8.65;;;;;;;4.72;100.00;100318.13;10421991;28;20061;-89
2024/01/01 19:08:03;;;;;;;23.98;7.15;;;;;;;4.80;100.00;100336.91;10461515;28;20496;-90
2024/01/01 19:13:03;;;;;;;17.15;6.82;;;;;;;4.80;100.00;100342.38;10459305;28;20052;-91
2024/01/01 19:18:04;;;;;;;17.52;7.97;;;;;;;4.85;100.00;100342.50;10427532;28;20060;-92
2024/01/01 19:23:04;;;;;;;11.93;7.32;;;;;;;4.75;100.00;100317.66;10461551;28;20041;-90
2024/01/01 19:28:05;;;;;;;20.90;8.32;;;;;;;4.89;100.00;100343.69;10463053;28;20099;-89
2024/01/01 19:33:06;;;;;;;18.30;8.77;;;;;;;4.77;100.00;100334.63;10444064;28;20037;-92
2024/01/01 19:38:07;;;;;;;20.40;9.32;;;;;;;4.42;100.00;100278.00;10439044;28;20037;-91
2024/01/01 19:43:08;;;;;;;23.23;9.65;;;;;;;4.72;100.00;100316.22;10455875;28;20061;-92
2024/01/01 19:48:08;;;;;;;21.35;9.95;;;;;;;4.74;100.00;100332.38;10463088;28;20049;-92
2024/01/01 19:53:09;;;;;;;23.08;9.65;;;;;;;4.73;100.00;100325.25;10444317;28;20029;-92
2024/01/01 19:58:09;;;;;;;26.15;10.20;;;;;;;4.70;100.00;100331.16;10443919;28;20037;-91
2024/01/01 20:03:10;;;;;;;25.08;11.20;;;;;;;4.47;100.00;100304.59;10466150;28;20060;-91
2024/01/01 20:08:10;;;;;;;19.15;10.10;;;;;;;4.45;100.00;100323.91;10442435;28;20405;-91
2024/01/01 20:13:11;;;;;;;27.92;12.63;;;;;;;4.32;100.00;100329.50;10459835;28;20037;-90
2024/01/01 20:18:11;;;;;;;30.85;12.43;;;;;;;3.99;100.00;100298.84;10459405;28;20095;-92
2024/01/01 20:23:12;;;;;;;25.67;11.18;;;;;;;4.14;100.00;100325.72;10442244;28;20037;-92
2024/01/01 20:28:12;;;;;;;33.80;13.02;;;;;;;4.01;100.00;100312.19;10442625;28;20048;-87
2024/01/01 20:33:13;;;;;;;32.63;11.77;;;;;;;4.02;100.00;100313.88;10440355;28;20049;-92
2024/01/01 20:38:13;;;;;;;27.05;12.57;;;;;;;3.97;100.00;100308.25;10452556;28;20756;-91
2024/01/01 20:43:14;;;;;;;33.08;13.00;;;;;;;3.94;100.00;100306.81;10452511;28;20548;-93
2024/01/01 20:48:14;;;;;;;29.83;13.68;;;;;;;3.95;100.00;100313.97;10442561;28;20029;-91
2024/01/01 20:53:15;;;;;;;30.00;15.15;;;;;;;4.01;100.00;100317.66;10441672;28;20029;-91
2024/01/01 20:58:16;;;;;;;30.08;14.13;;;;;;;3.96;100.00;100301.16;10443274;28;20107;-91
2024/01/01 21:03:16;;;;;;;24.20;12.98;;;;;;;3.38;100.00;100210.63;10459783;28;20048;-92
2024/01/01 21:08:17;;;;;;;33.58;14.15;;;;;;;3.87;100.00;100288.91;10457172;28;20408;-90
2024/01/01 21:13:17;;;;;;;31.45;15.05;;;;;;;4.00;100.00;100311.38;10422752;28;20041;-78
2024/01/01 21:18:18;;;;;;;34.22;16.83;;;;;;;3.88;100.00;100287.84;10457548;28;20033;-90
2024/01/01 21:23:18;;;;;;;36.00;17.48;;;;;;;3.97;100.00;100300.09;10456339;28;20037;-90
2024/01/01 21:28:19;;;;;;;37.78;18.67;;;;;;;3.96;100.00;100293.81;10423786;28;20033;-89
2024/01/01 21:33:20;;;;;;;40.50;16.42;;;;;;;4.10;100.00;100302.69;10457239;28;20048;-90
2024/01/01 21:38:21;;;;;;;37.50;17.83;;;;;;;4.07;100.00;100278.63;10422327;28;20099;-92
2024/01/01 21:43:21;;;;;;;40.58;17.70;;;;;;;3.86;100.00;100239.03;10431625;28;20061;-92
2024/01/01 21:48:22;;;;;;;35.42;16.00;;;;;;;3.87;100.00;100239.91;10457028;28;20132;-88
2024/01/01 21:53:23;;;;;;;34.97;18.08;;;;;;;4.06;100.00;100276.97;10470165;28;20041;-90
2024/01/01 21:58:23;;;;;;;33.70;17.27;;;;;;;4.08;100.00;100288.47;10468472;28;20045;-90
2024/01/01 22:03:24;;;;;;;37.25;16.95;;;;;;;4.08;100.00;100276.75;10470931;28;20107;-82
2024/01/01 22:08:24;;;;;;;33.17;18.63;;;;;;;4.12;100.00;100286.13;10437380;28;20040;-89
2024/01/01 22:13:26;;;;;;;30.13;16.63;;;;;;;4.14;100.00;100290.28;10454017;28;20083;-89
2024/01/01 22:18:26;;;;;;;31.85;16.42;;;;;;;4.06;100.00;100268.78;10471138;28;20680;-90
2024/01/01 22:23:26;;;;;;;39.08;15.82;;;;;;;4.03;100.00;100271.97;10468179;28;20059;-91
2024/01/01 22:28:27;;;;;;;29.23;14.32;;;;;;;3.96;100.00;100263.84;10471659;28;20028;-91
2024/01/01 22:33:27;;;;;;;31.45;15.52;;;;;;;3.97;100.00;100251.91;10469392;28;20041;-91
2024/01/01 22:38:29;;;;;;;26.45;14.65;;;;;;;3.85;100.00;100242.84;10467912;28;20095;-91
2024/01/01 22:43:30;;;;;;;22.17;13.88;;;;;;;3.76;100.00;100233.28;10463616;28;20040;-91
2024/01/01 22:48:31;;;;;;;25.80;14.27;;;;;;;3.67;100.00;100223.75;10461823;28;20060;-92